createdAt,value
2022-08-09T00:00:31.914Z,18.74
2022-08-09T00:01:52.578Z,18.59
2022-08-09T00:02:32.155Z,18.74
2022-08-09T00:04:03.648Z,18.77
2022-08-09T00:04:34.321Z,18.74
2022-08-09T00:06:19.002Z,18.71
2022-08-09T00:06:32.120Z,18.75
2022-08-09T00:07:31.870Z,18.75
2022-08-09T00:08:33.150Z,18.81
2022-08-09T00:09:31.904Z,18.73
2022-08-09T00:10:31.866Z,18.84
2022-08-09T00:12:04.010Z,18.86
2022-08-09T00:12:34.741Z,18.81
2022-08-09T00:13:31.953Z,18.80
2022-08-09T00:14:37.866Z,18.88
2022-08-09T00:15:57.850Z,18.89
2022-08-09T00:16:36.720Z,18.74
2022-08-09T00:18:10.869Z,18.71
2022-08-09T00:18:35.753Z,18.75
2022-08-09T00:19:31.842Z,18.80
2022-08-09T00:20:31.845Z,18.81
2022-08-09T00:21:31.859Z,18.81
2022-08-09T00:22:35.269Z,18.88
2022-08-09T00:23:57.603Z,18.80
2022-08-09T00:24:31.854Z,18.77
2022-08-09T00:25:33.024Z,18.73
2022-08-09T00:26:33.002Z,18.77
2022-08-09T00:27:31.828Z,18.80
2022-08-09T00:28:31.829Z,18.81
2022-08-09T00:29:39.570Z,18.81
2022-08-09T00:30:31.818Z,18.83
2022-08-09T00:31:58.777Z,18.84
2022-08-09T00:32:31.817Z,18.98
2022-08-09T00:33:32.593Z,18.83
2022-08-09T00:34:32.540Z,18.80
2022-08-09T00:35:42.960Z,18.86
2022-08-09T00:36:31.813Z,18.99
2022-08-09T00:37:32.512Z,18.92
2022-08-09T00:38:31.799Z,18.86
2022-08-09T00:40:12.431Z,18.96
2022-08-09T00:40:31.817Z,18.81
2022-08-09T00:44:10.586Z,18.77
2022-08-09T00:44:11.082Z,18.84
2022-08-09T00:44:19.390Z,18.83
2022-08-09T00:44:32.079Z,18.71
2022-08-09T00:45:34.742Z,18.73
2022-08-09T00:46:57.690Z,18.77
2022-08-09T00:47:35.813Z,18.71
2022-08-09T00:48:31.776Z,18.73
2022-08-09T00:49:31.773Z,18.74
2022-08-09T00:50:31.779Z,18.75
2022-08-09T00:51:34.083Z,18.73
2022-08-09T00:52:32.149Z,18.80
2022-08-09T00:53:31.757Z,18.73
2022-08-09T00:54:36.342Z,18.78
2022-08-09T00:56:03.343Z,18.73
2022-08-09T00:56:31.759Z,18.80
2022-08-09T00:57:35.319Z,18.89
2022-08-09T00:58:31.819Z,18.83
2022-08-09T00:59:41.422Z,18.86
2022-08-09T01:00:31.747Z,18.88
2022-08-09T01:01:32.262Z,18.73
2022-08-09T01:02:31.970Z,18.74
2022-08-09T01:03:32.793Z,18.71
2022-08-09T01:04:31.737Z,18.73
2022-08-09T01:05:53.766Z,18.70
2022-08-09T01:06:35.216Z,18.65
2022-08-09T01:07:37.995Z,18.56
2022-08-09T01:08:31.726Z,18.62
2022-08-09T01:09:36.830Z,18.66
2022-08-09T01:10:31.722Z,18.66
2022-08-09T01:11:31.721Z,18.63
2022-08-09T01:12:31.894Z,18.62
2022-08-09T01:13:41.918Z,18.62
2022-08-09T01:14:31.710Z,18.63
2022-08-09T01:15:31.719Z,18.59
2022-08-09T01:16:31.718Z,18.80
2022-08-09T01:17:34.200Z,18.75
2022-08-09T01:18:31.719Z,18.66
2022-08-09T01:19:40.147Z,18.77
2022-08-09T01:20:31.696Z,18.71
2022-08-09T01:21:41.331Z,18.74
2022-08-09T01:22:31.902Z,18.62
2022-08-09T01:24:03.190Z,18.71
2022-08-09T01:24:31.686Z,18.75
2022-08-09T01:25:31.684Z,18.74
2022-08-09T01:26:31.690Z,18.77
2022-08-09T01:27:31.683Z,18.74
2022-08-09T01:28:31.677Z,18.71
2022-08-09T01:29:55.191Z,18.65
2022-08-09T01:30:35.514Z,18.71
2022-08-09T01:32:31.030Z,18.71
2022-08-09T01:32:33.687Z,18.74
2022-08-09T01:33:31.665Z,18.63
2022-08-09T01:34:31.656Z,18.66
2022-08-09T01:35:38.492Z,18.62
2022-08-09T01:36:31.659Z,18.58
2022-08-09T01:37:43.142Z,18.63
2022-08-09T01:38:31.658Z,18.74
2022-08-09T01:39:31.677Z,18.65
2022-08-09T01:40:31.650Z,18.65
2022-08-09T01:41:31.646Z,18.63
2022-08-09T01:42:31.801Z,18.63
2022-08-09T01:43:31.640Z,18.62
2022-08-09T01:44:31.637Z,18.58
2022-08-09T01:45:31.633Z,18.59
2022-08-09T01:46:32.415Z,18.66
2022-08-09T01:47:31.629Z,18.58
2022-08-09T01:48:31.704Z,18.60
2022-08-09T01:49:32.015Z,18.52
2022-08-09T01:50:37.149Z,18.65
2022-08-09T01:51:32.410Z,18.52
2022-08-09T01:52:31.890Z,18.56
2022-08-09T01:53:41.399Z,18.59
2022-08-09T01:54:33.035Z,18.60
2022-08-09T01:55:31.612Z,18.56
2022-08-09T01:56:31.606Z,18.47
2022-08-09T01:57:31.605Z,18.58
2022-08-09T01:58:31.602Z,18.63
2022-08-09T01:59:32.390Z,18.56
2022-08-09T02:00:35.631Z,18.62
2022-08-09T02:01:58.176Z,18.59
2022-08-09T02:02:32.704Z,18.59
2022-08-09T02:03:31.589Z,18.59
2022-08-09T02:04:31.595Z,18.55
2022-08-09T02:05:38.032Z,18.55
2022-08-09T02:06:32.337Z,18.52
2022-08-09T02:08:35.100Z,18.59
2022-08-09T02:08:39.346Z,18.59
2022-08-09T02:09:41.939Z,18.53
2022-08-09T02:10:31.574Z,18.44
2022-08-09T02:11:42.738Z,18.43
2022-08-09T02:12:31.655Z,18.44
2022-08-09T02:13:40.351Z,18.41
2022-08-09T02:14:31.563Z,18.47
2022-08-09T02:15:48.731Z,18.43
2022-08-09T02:16:52.765Z,18.44
2022-08-09T02:18:00.777Z,18.43
2022-08-09T02:18:31.552Z,18.47
2022-08-09T02:19:38.805Z,18.47
2022-08-09T02:20:34.119Z,18.44
2022-08-09T02:21:31.559Z,18.40
2022-08-09T02:22:38.536Z,18.43
2022-08-09T02:23:31.954Z,18.43
2022-08-09T02:24:31.552Z,18.44
2022-08-09T02:25:31.537Z,18.38
2022-08-09T02:26:31.536Z,18.37
2022-08-09T02:27:58.025Z,18.43
2022-08-09T02:28:31.533Z,18.38
2022-08-09T02:29:32.706Z,18.35
2022-08-09T02:30:31.554Z,18.33
2022-08-09T02:31:35.650Z,18.43
2022-08-09T02:32:31.737Z,18.40
2022-08-09T02:33:58.437Z,18.34
2022-08-09T02:34:40.354Z,18.35
2022-08-09T02:36:01.071Z,18.37
2022-08-09T02:36:31.509Z,18.29
2022-08-09T02:37:33.029Z,18.37
2022-08-09T02:38:31.503Z,18.33
2022-08-09T02:39:34.032Z,18.38
2022-08-09T02:40:31.549Z,18.37
2022-08-09T02:41:31.498Z,18.37
2022-08-09T02:42:31.761Z,18.33
2022-08-09T02:43:31.494Z,18.40
2022-08-09T02:44:31.489Z,18.43
2022-08-09T02:45:31.485Z,18.35
2022-08-09T02:46:31.484Z,18.38
2022-08-09T02:47:33.983Z,18.40
2022-08-09T02:48:31.722Z,18.50
2022-08-09T02:49:38.677Z,18.37
2022-08-09T02:50:31.469Z,18.53
2022-08-09T02:51:37.146Z,18.50
2022-08-09T02:52:31.864Z,18.45
2022-08-09T02:53:31.477Z,18.47
2022-08-09T02:54:31.651Z,18.56
2022-08-09T02:55:46.848Z,18.55
2022-08-09T02:56:31.462Z,18.55
2022-08-09T02:57:31.456Z,18.59
2022-08-09T02:58:32.911Z,18.52
2022-08-09T02:59:36.382Z,18.45
2022-08-09T03:00:31.511Z,18.58
2022-08-09T03:02:05.117Z,18.50
2022-08-09T03:02:31.798Z,18.41
2022-08-09T03:04:13.205Z,18.45
2022-08-09T03:04:31.436Z,18.40
2022-08-09T03:05:34.243Z,18.33
2022-08-09T03:06:31.436Z,18.33
2022-08-09T03:07:31.433Z,18.35
2022-08-09T03:08:31.446Z,18.37
2022-08-09T03:09:33.499Z,18.34
2022-08-09T03:10:31.424Z,18.34
2022-08-09T03:12:10.506Z,18.38
2022-08-09T03:12:31.698Z,18.35
2022-08-09T03:13:43.912Z,18.33
2022-08-09T03:14:31.413Z,18.34
2022-08-09T03:16:04.744Z,18.23
2022-08-09T03:16:31.412Z,18.29
2022-08-09T03:17:31.405Z,18.28
2022-08-09T03:18:31.647Z,18.31
2022-08-09T03:19:58.649Z,18.31
2022-08-09T03:20:31.400Z,18.35
2022-08-09T03:21:39.519Z,18.31
2022-08-09T03:22:31.616Z,18.29
2022-08-09T03:23:31.400Z,18.20
2022-08-09T03:24:42.389Z,18.31
2022-08-09T03:25:59.130Z,18.29
2022-08-09T03:26:32.165Z,18.29
2022-08-09T03:27:31.376Z,18.31
2022-08-09T03:28:31.387Z,18.33
2022-08-09T03:29:31.388Z,18.35
2022-08-09T03:30:34.223Z,18.25
2022-08-09T03:31:31.372Z,18.35
2022-08-09T03:32:31.802Z,18.31
2022-08-09T03:33:54.497Z,18.29
2022-08-09T03:34:31.363Z,18.29
2022-08-09T03:36:11.087Z,18.18
2022-08-09T03:36:31.356Z,18.35
2022-08-09T03:37:55.815Z,18.33
2022-08-09T03:38:31.349Z,18.35
2022-08-09T03:39:38.133Z,18.35
2022-08-09T03:40:31.343Z,18.33
2022-08-09T03:41:48.479Z,18.38
2022-08-09T03:42:31.476Z,18.41
2022-08-09T03:43:31.818Z,18.34
2022-08-09T03:44:32.063Z,18.34
2022-08-09T03:46:03.981Z,18.38
2022-08-09T03:46:31.492Z,18.22
2022-08-09T03:47:31.333Z,18.29
2022-08-09T03:48:31.323Z,18.18
2022-08-09T03:49:35.492Z,18.33
2022-08-09T03:50:31.973Z,18.29
2022-08-09T03:51:57.382Z,18.25
2022-08-09T03:52:31.569Z,18.35
2022-08-09T03:53:32.084Z,18.29
2022-08-09T03:54:31.803Z,18.37
2022-08-09T03:55:35.956Z,18.38
2022-08-09T03:56:31.303Z,18.34
2022-08-09T03:57:31.926Z,18.44
2022-08-09T03:58:31.294Z,18.29
2022-08-09T03:59:53.277Z,18.33
2022-08-09T04:00:31.309Z,18.25
2022-08-09T04:01:31.284Z,18.26
2022-08-09T04:02:31.500Z,18.28
2022-08-09T04:03:45.930Z,18.26
2022-08-09T04:04:32.647Z,18.29
2022-08-09T04:05:32.227Z,18.23
2022-08-09T04:06:31.271Z,18.22
2022-08-09T04:07:47.107Z,18.33
2022-08-09T04:08:31.268Z,18.19
2022-08-09T04:09:48.152Z,18.33
2022-08-09T04:10:31.265Z,18.28
2022-08-09T04:11:31.261Z,18.28
2022-08-09T04:12:31.586Z,18.23
2022-08-09T04:14:36.780Z,18.31
2022-08-09T04:14:54.056Z,18.31
2022-08-09T04:16:18.029Z,18.26
2022-08-09T04:16:31.244Z,18.34
2022-08-09T04:17:31.401Z,18.29
2022-08-09T04:18:31.238Z,18.28
2022-08-09T04:19:51.012Z,18.31
2022-08-09T04:20:31.238Z,18.28
2022-08-09T04:21:31.240Z,18.28
2022-08-09T04:22:31.853Z,18.18
2022-08-09T04:23:31.230Z,18.29
2022-08-09T04:24:31.230Z,18.26
2022-08-09T04:25:31.214Z,18.28
2022-08-09T04:26:37.733Z,18.19
2022-08-09T04:27:31.219Z,18.31
2022-08-09T04:28:31.225Z,18.29
2022-08-09T04:29:31.233Z,18.38
2022-08-09T04:30:31.207Z,18.40
2022-08-09T04:31:37.659Z,18.41
2022-08-09T04:32:34.070Z,18.40
2022-08-09T04:33:31.196Z,18.43
2022-08-09T04:34:31.864Z,18.43
2022-08-09T04:35:32.634Z,18.47
2022-08-09T04:36:31.190Z,18.52
2022-08-09T04:37:45.789Z,18.55
2022-08-09T04:38:31.188Z,18.55
2022-08-09T04:39:31.461Z,18.53
2022-08-09T04:40:36.590Z,18.50
2022-08-09T04:41:32.809Z,18.60
2022-08-09T04:42:31.589Z,18.58
2022-08-09T04:43:31.171Z,18.52
2022-08-09T04:44:31.170Z,18.58
2022-08-09T04:45:36.029Z,18.55
2022-08-09T04:46:56.814Z,18.59
2022-08-09T04:47:33.219Z,18.59
2022-08-09T04:48:33.366Z,18.66
2022-08-09T04:49:53.683Z,18.62
2022-08-09T04:50:33.745Z,18.65
2022-08-09T04:51:31.153Z,18.60
2022-08-09T04:52:31.146Z,18.65
2022-08-09T04:53:31.489Z,18.53
2022-08-09T04:54:31.139Z,18.55
2022-08-09T04:55:38.955Z,18.56
2022-08-09T04:56:31.130Z,18.62
2022-08-09T04:57:59.300Z,18.63
2022-08-09T04:58:31.916Z,18.63
2022-08-09T04:59:31.140Z,18.60
2022-08-09T05:00:31.903Z,18.63
2022-08-09T05:01:31.121Z,18.58
2022-08-09T05:02:31.371Z,18.49
2022-08-09T05:03:43.191Z,18.60
2022-08-09T05:04:31.650Z,18.62
2022-08-09T05:05:31.728Z,18.59
2022-08-09T05:06:35.314Z,18.55
2022-08-09T05:07:32.004Z,18.66
2022-08-09T05:08:31.102Z,18.60
2022-08-09T05:09:41.903Z,18.70
2022-08-09T05:10:31.106Z,18.63
2022-08-09T05:11:35.572Z,18.70
2022-08-09T05:12:31.236Z,18.74
2022-08-09T05:13:33.087Z,18.71
2022-08-09T05:14:31.086Z,18.68
2022-08-09T05:15:42.648Z,18.75
2022-08-09T05:16:31.994Z,18.81
2022-08-09T05:18:42.752Z,18.60
2022-08-09T05:18:50.798Z,18.73
2022-08-09T05:19:31.748Z,18.73
2022-08-09T05:20:31.082Z,18.68
2022-08-09T05:21:36.611Z,18.77
2022-08-09T05:22:35.720Z,18.75
2022-08-09T05:23:53.796Z,18.73
2022-08-09T05:24:31.079Z,18.73
2022-08-09T05:25:32.525Z,18.78
2022-08-09T05:26:37.234Z,18.86
2022-08-09T05:27:31.179Z,18.81
2022-08-09T05:28:31.050Z,18.90
2022-08-09T05:29:31.550Z,18.80
2022-08-09T05:30:31.464Z,18.73
2022-08-09T05:31:44.847Z,18.73
2022-08-09T05:32:31.285Z,18.70
2022-08-09T05:33:32.810Z,18.66
2022-08-09T05:34:32.347Z,18.71
2022-08-09T05:35:31.958Z,18.71
2022-08-09T05:36:31.028Z,18.65
2022-08-09T05:37:31.025Z,18.71
2022-08-09T05:38:31.025Z,18.74
2022-08-09T05:39:36.359Z,18.68
2022-08-09T05:40:31.022Z,18.88
2022-08-09T05:41:31.015Z,18.81
2022-08-09T05:42:31.026Z,18.83
2022-08-09T05:43:32.025Z,18.92
2022-08-09T05:44:32.711Z,18.88
2022-08-09T05:45:52.623Z,18.90
2022-08-09T05:46:31.000Z,18.96
2022-08-09T05:47:33.207Z,19.07
2022-08-09T05:48:33.158Z,19.14
2022-08-09T05:50:24.151Z,19.19
2022-08-09T05:50:50.767Z,19.33
2022-08-09T05:51:46.118Z,19.36
2022-08-09T05:52:31.764Z,19.51
2022-08-09T05:53:33.335Z,19.41
2022-08-09T05:54:30.983Z,19.45
2022-08-09T05:55:31.306Z,19.54
2022-08-09T05:56:30.979Z,19.62
2022-08-09T05:57:50.778Z,19.56
2022-08-09T05:58:30.973Z,19.63
2022-08-09T05:59:30.983Z,19.44
2022-08-09T06:00:31.070Z,19.34
2022-08-09T06:01:33.610Z,19.39
2022-08-09T06:02:31.255Z,19.30
2022-08-09T06:03:34.803Z,19.26
2022-08-09T06:04:35.094Z,19.19
2022-08-09T06:05:57.391Z,19.02
2022-08-09T06:06:30.950Z,19.14
2022-08-09T06:07:30.969Z,19.07
2022-08-09T06:08:30.951Z,19.12
2022-08-09T06:09:54.856Z,19.21
2022-08-09T06:10:30.945Z,19.30
2022-08-09T06:11:41.125Z,19.39
2022-08-09T06:12:30.939Z,19.55
2022-08-09T06:13:33.920Z,19.56
2022-08-09T06:14:30.936Z,19.69
2022-08-09T06:15:30.937Z,19.82
2022-08-09T06:16:30.931Z,19.71
2022-08-09T06:17:39.075Z,19.85
2022-08-09T06:18:30.931Z,19.88
2022-08-09T06:19:30.926Z,20.04
2022-08-09T06:20:30.925Z,20.18
2022-08-09T06:21:30.923Z,20.25
2022-08-09T06:22:30.919Z,20.24
2022-08-09T06:23:57.272Z,20.32
2022-08-09T06:24:30.913Z,20.39
2022-08-09T06:25:30.913Z,20.40
2022-08-09T06:26:31.609Z,20.34
2022-08-09T06:27:41.354Z,20.28
2022-08-09T06:28:32.038Z,20.16
2022-08-09T06:29:30.905Z,20.10
2022-08-09T06:30:30.904Z,19.99
2022-08-09T06:31:39.323Z,19.96
2022-08-09T06:32:53.452Z,20.02
2022-08-09T06:33:41.142Z,20.06
2022-08-09T06:34:30.904Z,20.07
2022-08-09T06:35:56.548Z,20.13
2022-08-09T06:36:30.894Z,20.06
2022-08-09T06:37:30.909Z,20.06
2022-08-09T06:38:35.071Z,20.14
2022-08-09T06:39:48.333Z,20.22
2022-08-09T06:40:30.933Z,20.29
2022-08-09T06:41:55.853Z,20.29
2022-08-09T06:42:33.581Z,20.55
2022-08-09T06:43:34.443Z,20.36
2022-08-09T06:44:30.887Z,20.34
2022-08-09T06:46:07.662Z,20.51
2022-08-09T06:46:40.236Z,20.69
2022-08-09T06:47:39.761Z,20.67
2022-08-09T06:48:31.371Z,20.59
2022-08-09T06:50:11.708Z,20.66
2022-08-09T06:50:30.964Z,20.70
2022-08-09T06:51:31.066Z,20.77
2022-08-09T06:52:31.117Z,20.93
2022-08-09T06:53:38.167Z,20.97
2022-08-09T06:54:30.863Z,20.97
2022-08-09T06:55:30.863Z,20.93
2022-08-09T06:56:31.670Z,20.72
2022-08-09T06:58:02.174Z,20.69
2022-08-09T07:00:49.909Z,20.88
2022-08-09T07:00:56.313Z,20.84
2022-08-09T07:00:57.180Z,20.90
2022-08-09T07:01:53.573Z,20.87
2022-08-09T07:02:32.145Z,20.84
2022-08-09T07:03:30.890Z,20.96
2022-08-09T07:04:30.849Z,21.07
2022-08-09T07:06:02.398Z,21.21
2022-08-09T07:06:30.849Z,21.43
2022-08-09T07:08:00.986Z,21.54
2022-08-09T07:08:30.846Z,21.58
2022-08-09T07:09:53.446Z,22.06
2022-08-09T07:10:32.230Z,22.26
2022-08-09T07:11:34.308Z,22.62
2022-08-09T07:12:38.602Z,23.08
2022-08-09T07:13:30.833Z,23.40
2022-08-09T07:14:30.838Z,23.99
2022-08-09T07:16:38.460Z,24.28
2022-08-09T07:16:44.010Z,24.54
2022-08-09T07:17:39.790Z,24.50
2022-08-09T07:18:31.404Z,24.23
2022-08-09T07:19:30.833Z,24.45
2022-08-09T07:20:30.833Z,24.29
2022-08-09T07:21:31.083Z,24.98
2022-08-09T07:22:35.380Z,25.28
2022-08-09T07:23:30.834Z,24.85
2022-08-09T07:24:31.997Z,23.86
2022-08-09T07:25:30.834Z,23.56
2022-08-09T07:26:30.833Z,23.66
2022-08-09T07:27:33.873Z,23.65
2022-08-09T07:28:30.835Z,23.96
2022-08-09T07:29:38.018Z,24.39
2022-08-09T07:30:32.975Z,24.03
2022-08-09T07:31:30.838Z,23.86
2022-08-09T07:32:32.474Z,24.48
2022-08-09T07:33:31.133Z,25.40
2022-08-09T07:34:30.840Z,25.31
2022-08-09T07:35:30.840Z,25.51
2022-08-09T07:36:30.845Z,26.02
2022-08-09T07:37:30.844Z,26.34
2022-08-09T07:38:31.082Z,26.18
2022-08-09T07:39:40.213Z,26.83
2022-08-09T07:40:46.392Z,27.11
2022-08-09T07:41:32.834Z,26.41
2022-08-09T07:42:32.947Z,26.63
2022-08-09T07:43:30.854Z,27.49
2022-08-09T07:44:32.999Z,26.88
2022-08-09T07:45:40.300Z,26.83
2022-08-09T07:46:30.861Z,26.16
2022-08-09T07:47:31.061Z,26.31
2022-08-09T07:48:31.655Z,26.15
2022-08-09T07:49:30.869Z,26.25
2022-08-09T07:50:33.022Z,26.23
2022-08-09T07:52:05.419Z,26.19
2022-08-09T07:52:31.083Z,25.72
2022-08-09T07:53:36.473Z,24.86
2022-08-09T07:54:31.079Z,24.48
2022-08-09T07:55:30.899Z,24.50
2022-08-09T07:56:31.236Z,24.57
2022-08-09T07:57:35.666Z,24.57
2022-08-09T07:58:30.896Z,24.24
2022-08-09T07:59:45.895Z,24.29
2022-08-09T08:00:36.466Z,24.50
2022-08-09T08:01:33.932Z,24.43
2022-08-09T08:02:31.073Z,25.21
2022-08-09T08:03:30.909Z,26.03
2022-08-09T08:04:32.100Z,25.99
2022-08-09T08:05:54.093Z,26.43
2022-08-09T08:06:32.216Z,26.05
2022-08-09T08:08:43.258Z,26.40
2022-08-09T08:09:02.524Z,27.17
2022-08-09T08:09:38.726Z,26.89
2022-08-09T08:10:30.931Z,26.40
2022-08-09T08:12:23.966Z,26.51
2022-08-09T08:12:31.052Z,26.15
2022-08-09T08:13:38.247Z,26.90
2022-08-09T08:14:30.946Z,26.62
2022-08-09T08:15:30.948Z,26.31
2022-08-09T08:16:32.198Z,25.90
2022-08-09T08:17:52.044Z,25.69
2022-08-09T08:18:30.959Z,25.63
2022-08-09T08:19:31.473Z,25.93
2022-08-09T08:20:32.535Z,26.52
2022-08-09T08:21:30.970Z,26.96
2022-08-09T08:22:31.151Z,27.33
2022-08-09T08:23:31.764Z,27.64
2022-08-09T08:24:40.152Z,28.14
2022-08-09T08:25:43.920Z,28.27
2022-08-09T08:26:55.260Z,28.41
2022-08-09T08:27:40.796Z,28.23
2022-08-09T08:28:32.991Z,27.95
2022-08-09T08:29:39.623Z,27.85
2022-08-09T08:30:30.989Z,27.55
2022-08-09T08:32:03.902Z,27.48
2022-08-09T08:32:31.045Z,27.29
2022-08-09T08:33:40.719Z,26.16
2022-08-09T08:34:31.004Z,25.32
2022-08-09T08:35:37.176Z,24.88
2022-08-09T08:36:31.002Z,24.69
2022-08-09T08:37:42.036Z,24.51
2022-08-09T08:38:31.000Z,24.63
2022-08-09T08:39:39.276Z,24.60
2022-08-09T08:40:31.010Z,24.57
2022-08-09T08:41:50.529Z,24.58
2022-08-09T08:42:32.120Z,24.29
2022-08-09T08:43:31.010Z,24.08
2022-08-09T08:44:31.012Z,23.87
2022-08-09T08:45:37.225Z,23.87
2022-08-09T08:46:33.085Z,23.78
2022-08-09T08:47:31.018Z,23.88
2022-08-09T08:48:31.060Z,23.96
2022-08-09T08:49:38.483Z,24.02
2022-08-09T08:50:31.016Z,23.99
2022-08-09T08:51:41.760Z,24.05
2022-08-09T08:53:00.770Z,24.11
2022-08-09T08:53:36.930Z,24.08
2022-08-09T08:54:31.033Z,23.99
2022-08-09T08:55:32.213Z,24.05
2022-08-09T08:56:32.092Z,24.02
2022-08-09T08:57:35.265Z,24.11
2022-08-09T08:58:31.022Z,24.30
2022-08-09T08:59:47.033Z,24.26
2022-08-09T09:00:34.308Z,24.01
2022-08-09T09:01:44.727Z,24.06
2022-08-09T09:02:31.828Z,24.10
2022-08-09T09:03:37.769Z,24.11
2022-08-09T09:04:31.934Z,24.43
2022-08-09T09:05:57.668Z,25.06
2022-08-09T09:06:31.029Z,25.25
2022-08-09T09:07:31.026Z,25.11
2022-08-09T09:08:31.816Z,25.36
2022-08-09T09:09:58.497Z,25.43
2022-08-09T09:10:31.029Z,25.33
2022-08-09T09:11:31.028Z,25.28
2022-08-09T09:12:31.146Z,25.25
2022-08-09T09:13:41.781Z,24.99
2022-08-09T09:14:31.028Z,24.70
2022-08-09T09:15:31.029Z,24.57
2022-08-09T09:16:32.632Z,24.58
2022-08-09T09:17:49.150Z,24.63
2022-08-09T09:18:31.030Z,24.58
2022-08-09T09:19:40.841Z,24.60
2022-08-09T09:20:31.029Z,24.68
2022-08-09T09:21:31.031Z,24.63
2022-08-09T09:22:31.032Z,24.65
2022-08-09T09:23:37.745Z,24.55
2022-08-09T09:24:31.032Z,24.38
2022-08-09T09:26:01.306Z,24.26
2022-08-09T09:26:31.035Z,24.13
2022-08-09T09:28:05.127Z,24.14
2022-08-09T09:29:02.842Z,24.20
2022-08-09T09:29:46.076Z,24.24
2022-08-09T09:30:40.097Z,24.23
2022-08-09T09:32:06.875Z,24.17
2022-08-09T09:32:34.744Z,24.24
2022-08-09T09:33:31.036Z,24.33
2022-08-09T09:34:31.035Z,24.26
2022-08-09T09:35:33.257Z,24.38
2022-08-09T09:36:31.040Z,24.28
2022-08-09T09:37:32.223Z,24.21
2022-08-09T09:38:37.055Z,24.29
2022-08-09T09:39:50.182Z,24.42
2022-08-09T09:40:31.097Z,24.48
2022-08-09T09:41:33.403Z,24.43
2022-08-09T09:42:31.253Z,24.30
2022-08-09T09:43:31.037Z,24.35
2022-08-09T09:44:31.328Z,24.50
2022-08-09T09:45:31.060Z,24.57
2022-08-09T09:46:51.789Z,24.65
2022-08-09T09:47:32.644Z,24.61
2022-08-09T09:48:31.039Z,24.77
2022-08-09T09:49:50.141Z,24.74
2022-08-09T09:50:31.042Z,24.78
2022-08-09T09:51:38.479Z,24.70
2022-08-09T09:52:36.741Z,24.77
2022-08-09T09:53:57.611Z,24.86
2022-08-09T09:54:31.040Z,24.88
2022-08-09T09:55:33.299Z,24.91
2022-08-09T09:56:33.379Z,24.99
2022-08-09T09:58:03.578Z,25.06
2022-08-09T09:58:31.045Z,25.04
2022-08-09T09:59:35.523Z,24.93
2022-08-09T10:00:31.066Z,24.91
2022-08-09T10:01:37.995Z,24.86
2022-08-09T10:02:31.231Z,24.93
2022-08-09T10:03:31.069Z,24.96
2022-08-09T10:04:31.529Z,24.98
2022-08-09T10:06:00.706Z,25.08
2022-08-09T10:06:32.134Z,25.03
2022-08-09T10:07:31.268Z,25.11
2022-08-09T10:08:31.046Z,25.23
2022-08-09T10:09:31.047Z,25.35
2022-08-09T10:10:31.661Z,25.40
2022-08-09T10:11:59.442Z,25.38
2022-08-09T10:12:31.528Z,25.38
2022-08-09T10:13:45.266Z,25.47
2022-08-09T10:14:33.849Z,25.54
2022-08-09T10:16:08.858Z,25.51
2022-08-09T10:16:56.644Z,25.60
2022-08-09T10:17:39.973Z,25.46
2022-08-09T10:18:31.052Z,25.44
2022-08-09T10:19:31.054Z,25.58
2022-08-09T10:20:35.516Z,25.72
2022-08-09T10:21:31.051Z,25.66
2022-08-09T10:22:33.285Z,25.60
2022-08-09T10:23:31.055Z,25.47
2022-08-09T10:24:35.717Z,25.51
2022-08-09T10:25:34.484Z,25.44
2022-08-09T10:26:31.054Z,25.44
2022-08-09T10:27:38.756Z,25.33
2022-08-09T10:28:31.070Z,25.44
2022-08-09T10:30:12.167Z,25.53
2022-08-09T10:32:40.383Z,25.46
2022-08-09T10:34:10.809Z,25.48
2022-08-09T10:34:33.630Z,25.51
2022-08-09T10:35:31.063Z,25.55
2022-08-09T10:36:31.064Z,25.72
2022-08-09T10:37:31.061Z,25.73
2022-08-09T10:38:43.175Z,25.72
2022-08-09T10:39:40.959Z,25.66
2022-08-09T10:40:33.394Z,25.58
2022-08-09T10:41:31.283Z,25.68
2022-08-09T10:42:32.339Z,25.77
2022-08-09T10:43:36.106Z,25.75
2022-08-09T10:44:31.810Z,25.77
2022-08-09T10:45:31.564Z,25.83
2022-08-09T10:46:31.071Z,25.72
2022-08-09T10:48:14.473Z,25.73
2022-08-09T10:48:31.311Z,25.96
2022-08-09T10:49:49.684Z,26.00
2022-08-09T10:50:32.999Z,26.00
2022-08-09T10:51:40.940Z,25.96
2022-08-09T10:52:31.409Z,26.02
2022-08-09T10:53:32.075Z,26.06
2022-08-09T10:54:31.074Z,26.07
2022-08-09T10:55:35.626Z,26.15
2022-08-09T10:56:31.081Z,26.19
2022-08-09T10:57:31.369Z,26.25
2022-08-09T10:58:31.092Z,26.21
2022-08-09T10:59:31.796Z,26.13
2022-08-09T11:00:31.092Z,26.31
2022-08-09T11:03:13.045Z,26.13
2022-08-09T11:03:13.275Z,26.21
2022-08-09T11:03:49.620Z,26.05
2022-08-09T11:04:32.682Z,26.15
2022-08-09T11:05:31.359Z,26.18
2022-08-09T11:06:31.090Z,26.19
2022-08-09T11:07:56.793Z,26.09
2022-08-09T11:08:33.406Z,26.21
2022-08-09T11:09:33.685Z,26.45
2022-08-09T11:10:31.091Z,26.71
2022-08-09T11:11:31.099Z,26.78
2022-08-09T11:12:31.492Z,26.88
2022-08-09T11:13:50.040Z,27.10
2022-08-09T11:14:32.105Z,27.18
2022-08-09T11:15:33.845Z,27.18
2022-08-09T11:16:34.986Z,26.97
2022-08-09T11:17:31.245Z,26.83
2022-08-09T11:18:31.111Z,26.77
2022-08-09T11:20:10.754Z,26.55
2022-08-09T11:20:31.130Z,26.56
2022-08-09T11:21:31.113Z,26.52
2022-08-09T11:22:31.120Z,26.31
2022-08-09T11:23:31.137Z,26.40
2022-08-09T11:24:31.138Z,26.23
2022-08-09T11:25:36.203Z,26.16
2022-08-09T11:26:31.120Z,26.03
2022-08-09T11:28:04.270Z,26.00
2022-08-09T11:28:34.155Z,26.02
2022-08-09T11:30:06.189Z,25.87
2022-08-09T11:30:33.456Z,25.88
2022-08-09T11:31:36.659Z,25.91
2022-08-09T11:32:31.380Z,25.91
2022-08-09T11:33:31.133Z,25.81
2022-08-09T11:34:31.137Z,25.93
2022-08-09T11:35:35.026Z,25.91
2022-08-09T11:36:35.929Z,26.07
2022-08-09T11:37:40.697Z,26.13
2022-08-09T11:38:33.166Z,26.13
2022-08-09T11:39:38.067Z,26.16
2022-08-09T11:40:31.144Z,26.25
2022-08-09T11:41:37.948Z,25.96
2022-08-09T11:42:31.304Z,25.84
2022-08-09T11:43:32.182Z,25.68
2022-08-09T11:44:31.147Z,25.58
2022-08-09T11:45:37.773Z,25.47
2022-08-09T11:46:33.220Z,25.47
2022-08-09T11:47:31.153Z,25.43
2022-08-09T11:48:31.713Z,25.46
2022-08-09T11:49:42.555Z,25.51
2022-08-09T11:50:55.431Z,25.41
2022-08-09T11:53:00.677Z,25.51
2022-08-09T11:53:03.269Z,25.60
2022-08-09T11:54:01.597Z,25.47
2022-08-09T11:54:34.765Z,25.48
2022-08-09T11:55:52.887Z,25.66
2022-08-09T11:56:41.809Z,25.69
2022-08-09T11:57:51.541Z,25.80
2022-08-09T11:58:33.085Z,25.85
2022-08-09T11:59:33.655Z,25.98
2022-08-09T12:00:31.165Z,25.98
2022-08-09T12:02:18.109Z,26.19
2022-08-09T12:02:37.175Z,26.34
2022-08-09T12:03:50.459Z,26.41
2022-08-09T12:04:37.264Z,26.52
2022-08-09T12:05:34.460Z,26.55
2022-08-09T12:06:32.902Z,26.55
2022-08-09T12:07:41.256Z,26.58
2022-08-09T12:08:31.190Z,26.48
2022-08-09T12:09:33.757Z,26.55
2022-08-09T12:10:38.402Z,26.34
2022-08-09T12:11:44.646Z,26.18
2022-08-09T12:12:31.953Z,26.19
2022-08-09T12:14:09.719Z,26.21
2022-08-09T12:14:40.796Z,26.19
2022-08-09T12:15:50.516Z,26.18
2022-08-09T12:16:38.345Z,26.10
2022-08-09T12:17:42.069Z,26.00
2022-08-09T12:18:33.629Z,25.96
2022-08-09T12:19:31.193Z,25.93
2022-08-09T12:20:31.195Z,26.02
2022-08-09T12:21:32.631Z,25.98
2022-08-09T12:22:31.496Z,25.85
2022-08-09T12:23:56.474Z,25.87
2022-08-09T12:24:31.199Z,25.81
2022-08-09T12:25:36.606Z,25.87
2022-08-09T12:26:31.200Z,25.83
2022-08-09T12:29:13.385Z,25.88
2022-08-09T12:29:14.884Z,25.85
2022-08-09T12:29:43.562Z,25.88
2022-08-09T12:30:36.333Z,25.88
2022-08-09T12:31:58.825Z,25.93
2022-08-09T12:32:31.442Z,25.90
2022-08-09T12:33:51.100Z,25.83
2022-08-09T12:34:31.233Z,25.93
2022-08-09T12:35:36.040Z,26.00
2022-08-09T12:36:34.076Z,26.10
2022-08-09T12:37:31.216Z,26.16
2022-08-09T12:38:38.014Z,26.26
2022-08-09T12:39:31.305Z,26.22
2022-08-09T12:40:31.244Z,26.31
2022-08-09T12:41:38.315Z,26.36
2022-08-09T12:42:31.364Z,26.26
2022-08-09T12:44:07.067Z,26.34
2022-08-09T12:44:37.416Z,26.44
2022-08-09T12:45:33.387Z,26.53
2022-08-09T12:46:31.229Z,26.63
2022-08-09T12:47:37.574Z,26.63
2022-08-09T12:48:37.293Z,26.84
2022-08-09T12:49:31.230Z,26.90
2022-08-09T12:50:31.232Z,26.78
2022-08-09T12:52:00.767Z,26.80
2022-08-09T12:52:44.310Z,26.85
2022-08-09T12:53:37.723Z,26.99
2022-08-09T12:54:31.280Z,27.14